createdAt,value
2018-10-11T00:02:27.370Z,14.30
2018-10-11T00:04:55.933Z,14.30
2018-10-11T00:07:25.200Z,14.30
2018-10-11T00:09:54.481Z,14.30
2018-10-11T00:12:23.049Z,14.20
2018-10-11T00:14:51.179Z,14.20
2018-10-11T00:17:19.446Z,14.20
2018-10-11T00:19:48.740Z,14.20
2018-10-11T00:22:17.781Z,14.20
2018-10-11T00:24:46.489Z,14.20
2018-10-11T00:27:14.603Z,14.20
2018-10-11T00:29:42.925Z,14.10
2018-10-11T00:32:11.576Z,14.00
2018-10-11T00:34:40.401Z,14.00
2018-10-11T00:37:08.849Z,14.00
2018-10-11T00:39:39.718Z,14.00
2018-10-11T00:42:07.907Z,13.90
2018-10-11T00:44:36.024Z,14.00
2018-10-11T00:47:04.840Z,13.90
2018-10-11T00:49:34.946Z,13.90
2018-10-11T00:52:03.496Z,13.90
2018-10-11T00:54:31.728Z,13.90
2018-10-11T00:56:59.873Z,13.80
2018-10-11T00:59:28.673Z,13.80
2018-10-11T01:01:56.860Z,13.80
2018-10-11T01:04:25.013Z,13.70
2018-10-11T01:06:54.435Z,13.70
2018-10-11T01:09:23.423Z,13.80
2018-10-11T01:11:51.501Z,13.70
2018-10-11T01:14:20.958Z,13.70
2018-10-11T01:16:49.825Z,13.70
2018-10-11T01:19:18.461Z,13.60
2018-10-11T01:21:47.326Z,13.70
2018-10-11T01:24:15.549Z,13.60
2018-10-11T01:26:44.407Z,13.60
2018-10-11T01:29:13.433Z,13.50
2018-10-11T01:31:41.560Z,13.50
2018-10-11T01:34:10.517Z,13.50
2018-10-11T01:36:40.253Z,13.50
2018-10-11T01:39:08.453Z,13.50
2018-10-11T01:41:37.514Z,13.50
2018-10-11T01:44:06.059Z,13.40
2018-10-11T01:46:34.217Z,13.40
2018-10-11T01:49:02.949Z,13.40
2018-10-11T01:51:32.746Z,13.40
2018-10-11T01:54:01.523Z,13.40
2018-10-11T01:56:30.562Z,13.40
2018-10-11T01:58:59.129Z,13.30
2018-10-11T02:01:27.257Z,13.20
2018-10-11T02:03:55.577Z,13.30
2018-10-11T02:06:24.131Z,13.30
2018-10-11T02:08:52.785Z,13.30
2018-10-11T02:11:21.017Z,13.30
2018-10-11T02:13:49.681Z,13.30
2018-10-11T02:16:17.854Z,13.30
2018-10-11T02:18:46.142Z,13.30
2018-10-11T02:21:15.153Z,13.30
2018-10-11T02:23:43.437Z,13.30
2018-10-11T02:26:12.210Z,13.30
2018-10-11T02:28:40.916Z,13.30
2018-10-11T02:31:09.854Z,13.40
2018-10-11T02:33:38.833Z,13.40
2018-10-11T02:36:07.217Z,13.40
2018-10-11T02:38:35.413Z,13.40
2018-10-11T02:41:04.045Z,13.40
2018-10-11T02:43:33.397Z,13.40
2018-10-11T02:46:02.090Z,13.40
2018-10-11T02:48:31.181Z,13.40
2018-10-11T02:50:59.333Z,13.50
2018-10-11T02:53:28.613Z,13.50
2018-10-11T02:55:57.445Z,13.50
2018-10-11T02:58:37.078Z,13.40
2018-10-11T03:01:05.222Z,13.40
2018-10-11T03:03:33.438Z,13.40
2018-10-11T03:06:02.165Z,13.30
2018-10-11T03:08:30.425Z,13.30
2018-10-11T03:10:58.981Z,13.30
2018-10-11T03:13:27.440Z,13.30
2018-10-11T03:15:55.830Z,13.30
2018-10-11T03:18:24.001Z,13.30
2018-10-11T03:20:52.441Z,13.20
2018-10-11T03:23:21.113Z,13.20
2018-10-11T03:25:49.402Z,13.10
2018-10-11T03:28:18.287Z,13.10
2018-10-11T03:30:46.527Z,13.10
2018-10-11T03:33:16.225Z,13.10
2018-10-11T03:35:44.932Z,13.00
2018-10-11T03:38:13.553Z,13.00
2018-10-11T03:40:41.888Z,13.00
2018-10-11T03:43:10.061Z,12.90
2018-10-11T03:45:38.396Z,12.70
2018-10-11T03:48:06.745Z,12.70
2018-10-11T03:50:34.868Z,12.60
2018-10-11T03:53:03.589Z,12.60
2018-10-11T03:55:32.170Z,12.60
2018-10-11T03:58:00.825Z,12.70
2018-10-11T04:00:29.397Z,12.60
2018-10-11T04:02:58.112Z,12.60
2018-10-11T04:05:26.280Z,12.70
2018-10-11T04:07:54.430Z,12.60
2018-10-11T04:10:22.625Z,12.70
2018-10-11T04:12:51.457Z,12.70
2018-10-11T04:15:19.558Z,12.70
2018-10-11T04:17:48.085Z,12.60
2018-10-11T04:20:16.257Z,12.60
2018-10-11T04:22:45.505Z,12.70
2018-10-11T04:25:13.721Z,12.60
2018-10-11T04:27:41.935Z,12.60
2018-10-11T04:30:10.093Z,12.60
2018-10-11T04:32:38.325Z,12.60
2018-10-11T04:35:06.713Z,12.60
2018-10-11T04:37:35.081Z,12.50
2018-10-11T04:40:03.286Z,12.50
2018-10-11T04:42:31.481Z,12.40
2018-10-11T04:44:59.605Z,12.40
2018-10-11T04:47:28.549Z,12.40
2018-10-11T04:49:57.635Z,12.40
2018-10-11T04:52:25.757Z,12.40
2018-10-11T04:54:54.066Z,12.30
2018-10-11T04:57:22.217Z,12.40
2018-10-11T04:59:50.637Z,12.30
2018-10-11T05:02:18.871Z,12.20
2018-10-11T05:04:47.133Z,12.10
2018-10-11T05:07:15.734Z,12.10
2018-10-11T05:09:44.412Z,12.00
2018-10-11T05:12:13.611Z,12.00
2018-10-11T05:14:42.876Z,11.90
2018-10-11T05:17:11.148Z,11.90
2018-10-11T05:19:40.466Z,11.90
2018-10-11T05:22:08.599Z,11.80
2018-10-11T05:24:36.754Z,11.90
2018-10-11T05:27:05.142Z,12.00
2018-10-11T05:29:34.000Z,12.10
2018-10-11T05:32:02.828Z,12.10
2018-10-11T05:34:30.973Z,12.10
2018-10-11T05:37:00.049Z,12.10
2018-10-11T05:39:28.151Z,12.20
2018-10-11T05:41:56.325Z,12.30
2018-10-11T05:44:24.580Z,12.30
2018-10-11T05:46:53.377Z,12.30
2018-10-11T05:49:21.988Z,12.30
2018-10-11T05:51:50.587Z,12.20
2018-10-11T05:54:18.753Z,12.30
2018-10-11T05:56:47.410Z,12.30
2018-10-11T05:59:16.405Z,12.30
2018-10-11T06:01:45.137Z,12.30
2018-10-11T06:04:14.191Z,12.40
2018-10-11T06:06:45.126Z,12.40
2018-10-11T06:09:13.477Z,12.40
2018-10-11T06:11:41.585Z,12.40
2018-10-11T06:14:09.791Z,12.40
2018-10-11T06:16:38.073Z,12.40
2018-10-11T06:19:06.777Z,12.40
2018-10-11T06:21:34.933Z,12.50
2018-10-11T06:24:03.053Z,12.50
2018-10-11T06:26:31.398Z,12.50
2018-10-11T06:28:59.666Z,12.50
2018-10-11T06:31:27.923Z,12.60
2018-10-11T06:33:56.101Z,12.60
2018-10-11T06:36:24.916Z,12.60
2018-10-11T06:38:53.425Z,12.60
2018-10-11T06:41:21.876Z,12.70
2018-10-11T06:43:50.065Z,12.70
2018-10-11T06:46:19.049Z,12.80
2018-10-11T06:48:47.773Z,12.80
2018-10-11T06:51:16.857Z,12.80
2018-10-11T06:53:45.237Z,12.80
2018-10-11T06:56:13.534Z,12.90
2018-10-11T06:58:41.839Z,12.90
2018-10-11T07:01:10.101Z,13.00
2018-10-11T07:03:38.337Z,13.10
2018-10-11T07:06:06.688Z,13.10
2018-10-11T07:08:34.849Z,13.20
2018-10-11T07:11:03.084Z,13.20
2018-10-11T07:13:31.513Z,13.30
2018-10-11T07:15:59.677Z,13.30
2018-10-11T07:18:28.333Z,13.40
2018-10-11T07:20:56.488Z,13.50
2018-10-11T07:23:24.713Z,13.50
2018-10-11T07:25:52.858Z,13.60
2018-10-11T07:28:21.066Z,13.70
2018-10-11T07:30:49.821Z,13.70
2018-10-11T07:33:18.230Z,13.70
2018-10-11T07:35:46.422Z,13.80
2018-10-11T07:38:19.337Z,13.90
2018-10-11T07:40:48.329Z,14.00
2018-10-11T07:43:16.953Z,14.00
2018-10-11T07:45:45.478Z,14.10
2018-10-11T07:48:13.604Z,14.20
2018-10-11T07:50:42.151Z,14.20
2018-10-11T07:53:10.378Z,14.20
2018-10-11T07:55:38.628Z,14.30
2018-10-11T07:58:06.894Z,14.40
2018-10-11T08:00:35.725Z,14.40
2018-10-11T08:03:03.873Z,14.50
2018-10-11T08:05:32.349Z,14.60
2018-10-11T08:08:00.526Z,14.60
2018-10-11T08:10:29.104Z,14.70
2018-10-11T08:12:57.211Z,14.70
2018-10-11T08:15:25.383Z,14.70
2018-10-11T08:17:53.839Z,14.80
2018-10-11T08:20:22.083Z,14.90
2018-10-11T08:22:50.620Z,15.00
2018-10-11T08:25:19.143Z,15.00
2018-10-11T08:27:47.658Z,15.00
2018-10-11T08:30:16.323Z,15.00
2018-10-11T08:32:46.442Z,15.20
2018-10-11T08:35:15.060Z,15.30
2018-10-11T08:37:43.325Z,15.30
2018-10-11T08:40:12.361Z,15.40
2018-10-11T08:42:40.525Z,15.60
2018-10-11T08:45:08.657Z,15.60
2018-10-11T08:47:37.197Z,15.60
2018-10-11T08:50:05.385Z,15.60
2018-10-11T08:52:33.509Z,15.70
2018-10-11T08:55:01.703Z,15.70
2018-10-11T08:57:29.839Z,15.80
2018-10-11T08:59:57.911Z,15.90
2018-10-11T09:02:26.412Z,16.20
2018-10-11T09:04:54.595Z,16.80
2018-10-11T09:07:22.782Z,17.70
2018-10-11T09:09:53.635Z,18.60
2018-10-11T09:12:19.690Z,18.70
2018-10-11T09:14:48.301Z,19.00
2018-10-11T09:17:17.516Z,19.10
2018-10-11T09:19:45.748Z,19.70
2018-10-11T09:22:14.001Z,20.90
2018-10-11T09:24:42.155Z,21.10
2018-10-11T09:27:10.307Z,21.00
2018-10-11T09:29:38.473Z,21.20
2018-10-11T09:32:07.205Z,21.00
2018-10-11T09:34:35.768Z,20.70
2018-10-11T09:37:04.256Z,21.40
2018-10-11T09:39:32.395Z,21.20
2018-10-11T09:42:00.716Z,21.50
2018-10-11T09:44:29.658Z,21.70
2018-10-11T09:46:57.857Z,21.80
2018-10-11T09:49:26.058Z,21.50
2018-10-11T09:51:54.205Z,22.20
2018-10-11T09:54:22.429Z,22.40
2018-10-11T09:57:29.593Z,23.30
2018-10-11T09:59:58.274Z,22.90
2018-10-11T10:02:27.153Z,23.80
2018-10-11T10:04:57.659Z,24.10
2018-10-11T10:07:25.868Z,24.20
2018-10-11T10:09:54.073Z,24.20
2018-10-11T10:12:22.825Z,23.00
2018-10-11T10:14:51.487Z,23.20
2018-10-11T10:17:20.154Z,24.00
2018-10-11T10:19:49.296Z,25.00
2018-10-11T10:22:17.433Z,24.20
2018-10-11T10:24:45.657Z,23.80
2018-10-11T10:27:15.645Z,24.30
2018-10-11T10:29:43.780Z,24.40
2018-10-11T10:32:12.437Z,24.80
2018-10-11T10:34:40.545Z,23.90
2018-10-11T10:37:09.253Z,23.80
2018-10-11T10:39:38.129Z,24.00
2018-10-11T10:42:07.136Z,23.80
2018-10-11T10:44:35.493Z,23.90
2018-10-11T10:47:03.941Z,24.40
2018-10-11T10:49:32.146Z,24.20
2018-10-11T10:52:00.353Z,24.30
2018-10-11T10:54:30.706Z,25.20
2018-10-11T10:56:59.821Z,24.40
2018-10-11T10:59:27.996Z,24.90
2018-10-11T11:01:56.267Z,24.60
2018-10-11T11:04:24.955Z,24.00
2018-10-11T11:06:53.418Z,23.50
2018-10-11T11:09:21.558Z,23.60
2018-10-11T11:11:50.009Z,23.40
2018-10-11T11:14:18.461Z,23.60
2018-10-11T11:16:46.849Z,23.20
2018-10-11T11:19:15.737Z,23.80
2018-10-11T11:21:43.933Z,23.10
2018-10-11T11:24:12.030Z,22.90
2018-10-11T11:26:40.631Z,23.40
2018-10-11T11:29:09.535Z,23.40
2018-10-11T11:31:38.278Z,23.40
2018-10-11T11:34:06.674Z,23.10
2018-10-11T11:36:34.990Z,23.60
2018-10-11T11:39:08.373Z,23.50
2018-10-11T11:41:36.949Z,23.30
2018-10-11T11:44:05.215Z,23.40
2018-10-11T11:46:33.497Z,23.40
2018-10-11T11:49:01.727Z,23.60
2018-10-11T11:51:30.098Z,23.80
2018-10-11T11:53:58.432Z,23.60
2018-10-11T11:56:26.829Z,23.30
2018-10-11T11:58:54.972Z,23.00
2018-10-11T12:01:23.674Z,22.70
2018-10-11T12:03:51.969Z,22.80
2018-10-11T12:06:20.120Z,22.70
2018-10-11T12:08:48.366Z,23.00
2018-10-11T12:11:16.475Z,22.80
2018-10-11T12:13:44.817Z,22.50
2018-10-11T12:16:13.874Z,22.40
2018-10-11T12:18:42.073Z,22.50
2018-10-11T12:21:10.907Z,22.60
2018-10-11T12:23:39.542Z,22.60
2018-10-11T12:26:07.645Z,22.50
2018-10-11T12:28:36.620Z,22.50
2018-10-11T12:31:04.607Z,22.40
2018-10-11T12:33:33.002Z,22.20
2018-10-11T12:36:01.497Z,22.20
2018-10-11T12:38:29.780Z,22.10
2018-10-11T12:40:57.833Z,22.00
2018-10-11T12:43:26.565Z,22.10
2018-10-11T12:45:55.329Z,21.90
2018-10-11T12:48:25.175Z,21.80
2018-10-11T12:50:53.573Z,21.90
2018-10-11T12:53:21.669Z,21.90
2018-10-11T12:55:50.282Z,21.80
2018-10-11T12:58:18.446Z,22.00
2018-10-11T13:00:47.175Z,22.00
2018-10-11T13:03:16.356Z,22.10
2018-10-11T13:05:44.553Z,22.20
2018-10-11T13:08:12.661Z,22.10
2018-10-11T13:10:40.858Z,22.10
2018-10-11T13:13:12.664Z,22.10
2018-10-11T13:15:37.638Z,22.10
2018-10-11T13:18:06.121Z,22.10
2018-10-11T13:20:34.278Z,21.90
2018-10-11T13:23:02.569Z,22.00
2018-10-11T13:25:32.057Z,21.90
2018-10-11T13:28:00.272Z,21.70
2018-10-11T13:30:28.816Z,21.70
2018-10-11T13:32:57.077Z,21.60
2018-10-11T13:35:25.321Z,21.70
2018-10-11T13:37:53.446Z,21.70
2018-10-11T13:40:21.679Z,21.60
2018-10-11T13:42:50.835Z,21.50
2018-10-11T13:45:18.993Z,21.50
2018-10-11T13:47:47.493Z,21.40
2018-10-11T13:50:15.622Z,21.40
2018-10-11T13:52:43.826Z,21.30
2018-10-11T13:55:14.190Z,21.40
2018-10-11T13:57:40.694Z,21.40
2018-10-11T14:00:09.081Z,21.50
2018-10-11T14:02:37.565Z,21.40
2018-10-11T14:05:05.989Z,21.50
2018-10-11T14:07:34.713Z,21.50
2018-10-11T14:10:03.502Z,21.50
2018-10-11T14:12:31.905Z,21.40
2018-10-11T14:15:00.022Z,21.40
2018-10-11T14:17:28.250Z,21.30
2018-10-11T14:19:56.542Z,21.30
2018-10-11T14:22:24.678Z,21.30
2018-10-11T14:24:52.913Z,21.30
2018-10-11T14:27:21.010Z,21.30
2018-10-11T14:29:50.018Z,21.30
2018-10-11T14:32:18.241Z,21.30
2018-10-11T14:34:46.359Z,21.20
2018-10-11T14:37:14.810Z,21.20
2018-10-11T14:39:42.954Z,21.20
2018-10-11T14:42:11.185Z,21.20
2018-10-11T14:44:39.273Z,21.10
2018-10-11T14:47:07.697Z,21.20
2018-10-11T14:49:35.824Z,21.20
2018-10-11T14:52:04.950Z,21.10
2018-10-11T14:54:34.662Z,21.10
2018-10-11T14:57:05.124Z,21.00
2018-10-11T14:59:33.241Z,21.00
2018-10-11T15:02:01.927Z,20.90
2018-10-11T15:04:30.506Z,20.90
2018-10-11T15:06:58.661Z,20.90
2018-10-11T15:09:27.003Z,20.80
2018-10-11T15:11:55.206Z,20.80
2018-10-11T15:14:23.681Z,20.70
2018-10-11T15:16:52.337Z,20.70
2018-10-11T15:19:20.513Z,20.70
2018-10-11T15:21:48.652Z,20.70
2018-10-11T15:24:16.926Z,20.60
2018-10-11T15:26:45.417Z,20.60
2018-10-11T15:29:13.651Z,20.50
2018-10-11T15:31:41.780Z,20.50
2018-10-11T15:34:09.913Z,20.30
2018-10-11T15:36:38.581Z,20.30
2018-10-11T15:39:09.282Z,20.30
2018-10-11T15:41:37.939Z,20.20
2018-10-11T15:44:06.212Z,20.10
2018-10-11T15:46:34.412Z,20.00
2018-10-11T15:49:02.592Z,20.00
2018-10-11T15:51:31.365Z,19.90
2018-10-11T15:53:59.552Z,19.80
2018-10-11T15:56:27.673Z,19.70
2018-10-11T15:58:55.989Z,19.50
2018-10-11T16:01:24.560Z,19.50
2018-10-11T16:03:53.434Z,19.40
2018-10-11T16:06:21.992Z,19.30
2018-10-11T16:08:50.810Z,19.20
2018-10-11T16:11:18.985Z,19.10
2018-10-11T16:13:47.294Z,19.00
2018-10-11T16:16:15.893Z,18.80
2018-10-11T16:18:44.017Z,18.70
2018-10-11T16:21:12.313Z,18.60
2018-10-11T16:23:41.011Z,18.50
2018-10-11T16:26:09.385Z,18.40
2018-10-11T16:28:37.533Z,18.30
2018-10-11T16:31:06.707Z,18.20
2018-10-11T16:33:34.798Z,18.10
2018-10-11T16:36:02.982Z,17.90
2018-10-11T16:38:31.402Z,17.90
2018-10-11T16:40:59.581Z,17.80
2018-10-11T16:43:27.733Z,17.70
2018-10-11T16:45:56.122Z,17.70
2018-10-11T16:48:24.513Z,17.60
2018-10-11T16:50:52.996Z,17.60
2018-10-11T16:53:21.121Z,17.40
2018-10-11T16:55:50.207Z,17.20
2018-10-11T16:58:18.638Z,17.10
2018-10-11T17:00:47.021Z,16.90
2018-10-11T17:03:15.160Z,16.80
2018-10-11T17:05:43.377Z,16.80
2018-10-11T17:08:11.613Z,16.90
2018-10-11T17:10:40.403Z,17.00
2018-10-11T17:13:09.001Z,17.00
2018-10-11T17:15:37.730Z,17.00
2018-10-11T17:18:05.908Z,17.10
2018-10-11T17:20:34.065Z,17.10
2018-10-11T17:23:02.242Z,17.20
2018-10-11T17:25:30.401Z,17.30
2018-10-11T17:27:58.556Z,17.30
2018-10-11T17:30:26.837Z,17.40
2018-10-11T17:32:55.114Z,17.30
2018-10-11T17:35:23.410Z,17.10
2018-10-11T17:37:51.749Z,17.00
2018-10-11T17:40:20.300Z,16.90
2018-10-11T17:42:48.857Z,16.80
2018-10-11T17:45:17.719Z,16.80
2018-10-11T17:47:45.901Z,16.80
2018-10-11T17:50:14.126Z,16.70
2018-10-11T17:52:42.365Z,16.50
2018-10-11T17:55:10.514Z,16.40
2018-10-11T17:57:38.709Z,16.30
2018-10-11T18:00:07.006Z,16.20
2018-10-11T18:02:35.177Z,16.10
2018-10-11T18:05:03.300Z,16.00
2018-10-11T18:07:31.522Z,16.00
2018-10-11T18:09:59.712Z,16.00
2018-10-11T18:12:27.862Z,16.00
2018-10-11T18:14:56.010Z,16.00
2018-10-11T18:17:24.183Z,16.00
2018-10-11T18:19:52.724Z,16.00
2018-10-11T18:22:21.697Z,16.20
2018-10-11T18:24:49.847Z,16.20
2018-10-11T18:27:18.557Z,16.10
2018-10-11T18:29:47.274Z,16.10
2018-10-11T18:32:15.418Z,16.10
2018-10-11T18:34:43.625Z,16.00
2018-10-11T18:37:11.809Z,16.00
2018-10-11T18:39:39.998Z,16.00
2018-10-11T18:42:08.638Z,15.90
2018-10-11T18:44:37.357Z,15.80
2018-10-11T18:47:05.513Z,15.70
2018-10-11T18:49:33.658Z,15.70
2018-10-11T18:52:02.549Z,15.60
2018-10-11T18:54:30.695Z,15.60
2018-10-11T18:56:58.890Z,15.60
2018-10-11T18:59:27.237Z,15.60
2018-10-11T19:01:55.677Z,15.60
2018-10-11T19:04:23.821Z,15.50
2018-10-11T19:06:52.533Z,15.50
2018-10-11T19:09:20.979Z,15.40
2018-10-11T19:11:49.140Z,15.50
2018-10-11T19:14:17.410Z,15.40
2018-10-11T19:16:45.721Z,15.50
2018-10-11T19:19:14.940Z,15.50
2018-10-11T19:22:14.203Z,15.40
2018-10-11T19:24:42.374Z,15.40
2018-10-11T19:27:11.210Z,15.30
2018-10-11T19:29:40.033Z,15.20
2018-10-11T19:32:08.264Z,15.10
2018-10-11T19:34:37.069Z,15.00
2018-10-11T19:37:05.538Z,15.00
2018-10-11T19:39:33.685Z,15.00
2018-10-11T19:42:02.450Z,15.00
2018-10-11T19:44:30.692Z,14.90
2018-10-11T19:46:58.801Z,14.90
2018-10-11T19:49:27.425Z,14.80
2018-10-11T19:51:55.575Z,14.80
2018-10-11T19:54:24.192Z,14.80
2018-10-11T19:56:53.082Z,14.80
2018-10-11T19:59:21.230Z,14.70
2018-10-11T20:01:49.465Z,14.60
2018-10-11T20:04:17.561Z,14.70
2018-10-11T20:06:46.185Z,14.70
2018-10-11T20:09:15.258Z,14.70
2018-10-11T20:11:43.405Z,14.70
2018-10-11T20:14:12.325Z,14.70
2018-10-11T20:16:40.970Z,14.70
2018-10-11T20:19:09.278Z,14.70
2018-10-11T20:21:37.477Z,14.70
2018-10-11T20:24:05.822Z,14.70
2018-10-11T20:26:34.062Z,14.60
2018-10-11T20:29:02.169Z,14.60
2018-10-11T20:31:30.345Z,14.50
2018-10-11T20:34:00.345Z,14.50
2018-10-11T20:36:29.393Z,14.50
2018-10-11T20:38:57.517Z,14.60
2018-10-11T20:41:25.733Z,14.50
2018-10-11T20:43:53.989Z,14.50
2018-10-11T20:46:22.397Z,14.50
2018-10-11T20:48:50.984Z,14.70
2018-10-11T20:51:19.502Z,14.30
2018-10-11T20:53:47.625Z,14.20
2018-10-11T20:56:16.485Z,14.10
2018-10-11T20:58:44.983Z,13.90
2018-10-11T21:01:13.185Z,13.90
2018-10-11T21:03:41.322Z,13.80
2018-10-11T21:06:09.561Z,13.80
2018-10-11T21:08:37.737Z,13.70
2018-10-11T21:11:05.935Z,13.60
2018-10-11T21:13:34.133Z,13.60
2018-10-11T21:16:02.524Z,13.60
2018-10-11T21:18:30.665Z,13.80
2018-10-11T21:20:58.909Z,13.90
2018-10-11T21:23:27.045Z,14.00
2018-10-11T21:25:55.249Z,14.00
2018-10-11T21:28:23.593Z,14.00
2018-10-11T21:30:52.473Z,14.10
2018-10-11T21:33:20.670Z,14.00
2018-10-11T21:35:48.810Z,14.00
2018-10-11T21:38:17.308Z,14.00
2018-10-11T21:40:45.486Z,13.90
2018-10-11T21:43:13.676Z,13.90
2018-10-11T21:46:45.576Z,13.90
2018-10-11T21:49:13.682Z,13.80
2018-10-11T21:51:41.954Z,13.80
2018-10-11T21:54:10.462Z,13.90
2018-10-11T21:56:38.671Z,13.90
2018-10-11T21:59:06.802Z,13.90
2018-10-11T22:01:35.601Z,13.90
2018-10-11T22:04:04.289Z,13.80
2018-10-11T22:06:32.695Z,13.80
2018-10-11T22:09:01.155Z,13.80
2018-10-11T22:11:29.341Z,13.80
2018-10-11T22:13:57.473Z,13.80
2018-10-11T22:16:25.973Z,13.70
2018-10-11T22:18:54.125Z,13.60
2018-10-11T22:21:22.345Z,13.60
2018-10-11T22:23:50.521Z,13.50
2018-10-11T22:26:18.653Z,13.50
2018-10-11T22:28:46.902Z,13.50
2018-10-11T22:31:15.046Z,13.50
2018-10-11T22:33:43.294Z,13.50
2018-10-11T22:36:12.598Z,13.50
2018-10-11T22:38:42.038Z,13.40
2018-10-11T22:41:11.317Z,13.40
2018-10-11T22:43:39.569Z,13.40
2018-10-11T22:46:08.296Z,13.40
2018-10-11T22:48:36.510Z,13.40
2018-10-11T22:51:04.606Z,13.40
2018-10-11T22:53:32.739Z,13.40
2018-10-11T22:56:00.854Z,13.30
2018-10-11T22:58:29.370Z,13.30
2018-10-11T23:00:57.537Z,13.30
2018-10-11T23:03:25.682Z,13.30
2018-10-11T23:05:54.502Z,13.20
2018-10-11T23:08:22.653Z,13.20
2018-10-11T23:10:50.890Z,13.20
2018-10-11T23:13:19.233Z,13.20
2018-10-11T23:15:47.365Z,13.20
2018-10-11T23:18:16.174Z,13.20
2018-10-11T23:20:45.090Z,13.20
2018-10-11T23:23:14.729Z,13.20
2018-10-11T23:25:42.846Z,13.10
2018-10-11T23:28:11.041Z,13.10
2018-10-11T23:30:39.425Z,13.10
2018-10-11T23:33:07.981Z,13.10
2018-10-11T23:35:36.602Z,13.10
2018-10-11T23:38:05.048Z,13.10
2018-10-11T23:40:33.255Z,13.10
2018-10-11T23:43:01.323Z,13.00
2018-10-11T23:45:29.477Z,13.00
2018-10-11T23:47:57.637Z,13.10
2018-10-11T23:50:25.884Z,13.00
2018-10-11T23:52:54.315Z,13.00
2018-10-11T23:55:22.477Z,12.90
2018-10-11T23:57:50.621Z,12.80
